Time;durP1;ratioP1;P1;durP2;ratioP2;P2;SDS_P1;SDS_P2;PMS_P1;PMS_P2;Temp;Humidity;BMP_temperature;BMP_pressure;BME280_temperature;BME280_humidity;BME280_pressure;Samples;Min_cycle;Max_cycle;Signal;HPM_P1;HPM_P2
2022/03/15 00:00:40;;;;;;;5.17;2.50;;;8.80;99.90;;;;;;5049918;28;20190;-72
2022/03/15 00:03:06;;;;;;;4.47;2.50;;;8.80;99.90;;;;;;5048294;28;20197;-71
2022/03/15 00:05:34;;;;;;;3.63;2.37;;;8.80;99.90;;;;;;5069908;28;20196;-72
2022/03/15 00:08:02;;;;;;;4.70;2.33;;;8.80;99.90;;;;;;5059081;28;20194;-72
2022/03/15 00:10:28;;;;;;;4.53;2.40;;;8.70;99.90;;;;;;5040549;28;20288;-70
2022/03/15 00:12:55;;;;;;;4.70;2.57;;;8.70;99.90;;;;;;5052560;28;20186;-73
2022/03/15 00:15:21;;;;;;;4.40;2.33;;;8.70;99.90;;;;;;5038400;28;20305;-73
2022/03/15 00:17:52;;;;;;;4.97;2.57;;;8.70;99.90;;;;;;5050625;28;20197;-72
2022/03/15 00:20:24;;;;;;;3.70;2.40;;;8.70;99.90;;;;;;5051211;28;20239;-75
2022/03/15 00:22:52;;;;;;;3.17;2.13;;;8.70;99.90;;;;;;5035814;28;20186;-71
2022/03/15 00:25:19;;;;;;;4.47;2.30;;;8.70;99.90;;;;;;5045964;28;20247;-74
2022/03/15 00:27:49;;;;;;;4.27;2.20;;;8.70;99.90;;;;;;5053688;28;20205;-73
2022/03/15 00:30:15;;;;;;;3.83;2.13;;;8.70;99.90;;;;;;5055713;28;20193;-73
2022/03/15 00:32:41;;;;;;;3.07;2.17;;;8.60;99.90;;;;;;5046729;28;20227;-73
2022/03/15 00:35:16;;;;;;;6.17;2.37;;;8.60;99.90;;;;;;5049476;28;20243;-72
2022/03/15 00:37:46;;;;;;;3.13;2.13;;;8.60;99.90;;;;;;5041645;28;20183;-72
2022/03/15 00:40:13;;;;;;;3.90;2.30;;;8.60;99.90;;;;;;5055051;28;20201;-72
2022/03/15 00:42:47;;;;;;;3.77;2.27;;;8.60;99.90;;;;;;5052918;28;20181;-69
2022/03/15 00:45:15;;;;;;;3.37;2.30;;;8.60;99.90;;;;;;5038622;28;20204;-73
2022/03/15 00:47:41;;;;;;;4.73;2.50;;;8.60;99.90;;;;;;5044154;28;20191;-73
2022/03/15 00:50:08;;;;;;;4.43;2.40;;;8.60;99.90;;;;;;5064114;28;20201;-73
2022/03/15 00:52:33;;;;;;;3.10;2.33;;;8.60;99.90;;;;;;5046831;28;20284;-73
2022/03/15 00:55:01;;;;;;;4.33;2.30;;;8.60;99.90;;;;;;5036691;28;20324;-67
2022/03/15 00:57:27;;;;;;;7.00;2.40;;;8.60;99.90;;;;;;5052722;28;20178;-74
2022/03/15 00:59:55;;;;;;;3.97;2.30;;;8.60;99.90;;;;;;5053920;28;20382;-73
2022/03/15 01:02:20;;;;;;;5.73;2.47;;;8.60;99.90;;;;;;5055994;28;20189;-72
2022/03/15 01:04:46;;;;;;;3.63;2.40;;;8.60;99.90;;;;;;5047182;28;20200;-71
2022/03/15 01:07:14;;;;;;;4.00;2.30;;;8.60;99.90;;;;;;5046510;28;20289;-66
2022/03/15 01:09:42;;;;;;;3.87;2.30;;;8.60;99.90;;;;;;5044589;28;20283;-70
2022/03/15 01:12:11;;;;;;;3.30;2.10;;;8.60;99.90;;;;;;5046978;28;20231;-71
2022/03/15 01:14:39;;;;;;;4.30;2.00;;;8.60;99.90;;;;;;5051408;28;20178;-71
2022/03/15 01:17:05;;;;;;;3.73;2.20;;;8.60;99.90;;;;;;5054349;28;20261;-72
2022/03/15 01:19:33;;;;;;;4.30;2.53;;;8.60;99.90;;;;;;5042737;28;20269;-72
2022/03/15 01:21:59;;;;;;;4.03;2.30;;;8.60;99.90;;;;;;5055762;28;20192;-72
2022/03/15 01:24:25;;;;;;;3.83;2.37;;;8.50;99.90;;;;;;5052741;28;20288;-73
2022/03/15 01:26:52;;;;;;;3.17;2.00;;;8.60;99.90;;;;;;5040728;28;20224;-73
2022/03/15 01:29:22;;;;;;;2.90;2.10;;;8.50;99.90;;;;;;5053675;28;20185;-73
2022/03/15 01:31:50;;;;;;;4.90;2.37;;;8.50;99.90;;;;;;5059912;28;20175;-74
2022/03/15 01:34:16;;;;;;;3.63;2.30;;;8.50;99.90;;;;;;5052156;28;20166;-73
2022/03/15 01:36:46;;;;;;;4.20;2.20;;;8.50;99.90;;;;;;5050938;28;20199;-73
2022/03/15 01:39:12;;;;;;;4.03;2.10;;;8.50;99.90;;;;;;5045447;28;20184;-73
2022/03/15 01:41:41;;;;;;;4.40;2.50;;;8.50;99.90;;;;;;5051222;28;20178;-73
2022/03/15 01:44:33;;;;;;;3.77;2.07;;;8.50;99.90;;;;;;5043342;28;20217;-73
2022/03/15 01:47:01;;;;;;;4.57;2.53;;;8.50;99.90;;;;;;5040850;28;20182;-70
2022/03/15 01:49:27;;;;;;;2.87;2.17;;;8.50;99.90;;;;;;5049596;28;20313;-73
2022/03/15 01:51:52;;;;;;;4.50;2.40;;;8.50;99.90;;;;;;5047631;28;20237;-70
2022/03/15 01:54:20;;;;;;;3.30;2.10;;;8.50;99.90;;;;;;5044211;28;20194;-74
2022/03/15 01:56:46;;;;;;;4.30;2.37;;;8.50;99.90;;;;;;5040640;28;20216;-71
2022/03/15 01:59:16;;;;;;;5.17;2.63;;;8.50;99.90;;;;;;5048545;28;20189;-71
2022/03/15 02:01:42;;;;;;;3.60;2.43;;;8.50;99.90;;;;;;5043776;28;20169;-71
2022/03/15 02:04:15;;;;;;;5.43;2.43;;;8.40;99.90;;;;;;5048401;28;20215;-70
2022/03/15 02:06:50;;;;;;;4.80;2.43;;;8.40;99.90;;;;;;5047805;28;20185;-73
2022/03/15 02:09:16;;;;;;;3.60;2.13;;;8.40;99.90;;;;;;5053424;28;20299;-73
2022/03/15 02:11:43;;;;;;;3.93;2.70;;;8.40;99.90;;;;;;5049439;28;20246;-72
2022/03/15 02:14:15;;;;;;;3.37;2.20;;;8.40;99.90;;;;;;5048362;28;20188;-73
2022/03/15 02:16:41;;;;;;;5.60;2.50;;;8.40;99.90;;;;;;5050565;28;20268;-74
2022/03/15 02:19:09;;;;;;;4.87;2.50;;;8.40;99.90;;;;;;5038676;28;20277;-69
2022/03/15 02:21:39;;;;;;;4.33;1.93;;;8.30;99.90;;;;;;5046217;28;20246;-74
2022/03/15 02:24:05;;;;;;;3.50;2.47;;;8.30;99.90;;;;;;5054536;28;20177;-73
2022/03/15 02:26:33;;;;;;;4.00;2.37;;;8.30;99.90;;;;;;5050412;28;20276;-73
2022/03/15 02:28:59;;;;;;;4.80;2.30;;;8.30;99.90;;;;;;5061634;28;20204;-72
2022/03/15 02:31:25;;;;;;;5.30;2.50;;;8.30;99.90;;;;;;5045899;28;20266;-73
2022/03/15 02:33:53;;;;;;;6.43;2.53;;;8.30;99.90;;;;;;5050078;28;20181;-73
2022/03/15 02:36:21;;;;;;;3.50;2.10;;;8.30;99.90;;;;;;5038526;28;20304;-74
2022/03/15 02:38:46;;;;;;;4.70;2.27;;;8.30;99.90;;;;;;5050475;28;20205;-74
2022/03/15 02:41:15;;;;;;;3.07;2.13;;;8.30;99.90;;;;;;5047659;28;20174;-73
2022/03/15 02:43:44;;;;;;;4.33;2.43;;;8.30;99.90;;;;;;5038706;28;20178;-73
2022/03/15 02:46:10;;;;;;;3.73;2.20;;;8.30;99.90;;;;;;5044920;28;20181;-73
2022/03/15 02:48:39;;;;;;;4.27;2.50;;;8.30;99.90;;;;;;5039419;28;20170;-74
2022/03/15 02:51:08;;;;;;;4.53;2.30;;;8.30;99.90;;;;;;5044778;28;20327;-74
2022/03/15 02:53:37;;;;;;;5.47;2.70;;;8.20;99.90;;;;;;5054972;28;20216;-74
2022/03/15 02:56:10;;;;;;;3.00;2.30;;;8.20;99.90;;;;;;5069805;28;20237;-75
2022/03/15 02:58:39;;;;;;;4.80;2.50;;;8.20;99.90;;;;;;5045143;28;20197;-74
2022/03/15 03:01:06;;;;;;;3.37;2.30;;;8.10;99.90;;;;;;5040337;28;20197;-73
2022/03/15 03:03:35;;;;;;;5.77;2.70;;;8.10;99.90;;;;;;5050092;28;20212;-71
2022/03/15 03:06:03;;;;;;;3.83;2.33;;;8.10;99.90;;;;;;5050465;28;20183;-73
2022/03/15 03:08:32;;;;;;;3.33;2.80;;;8.00;99.90;;;;;;5042217;28;20251;-72
2022/03/15 03:10:59;;;;;;;3.67;2.47;;;8.00;99.90;;;;;;5053872;28;20195;-74
2022/03/15 03:13:26;;;;;;;4.27;2.57;;;8.00;99.90;;;;;;5068123;28;20201;-74
2022/03/15 03:15:57;;;;;;;4.80;2.77;;;7.90;99.90;;;;;;5063738;28;20187;-72
2022/03/15 03:18:31;;;;;;;3.20;2.20;;;8.00;99.90;;;;;;5053382;28;20190;-73
2022/03/15 03:20:57;;;;;;;3.63;2.20;;;7.90;99.90;;;;;;5052355;28;20181;-73
2022/03/15 03:23:25;;;;;;;3.90;2.63;;;7.90;99.90;;;;;;5053352;28;20177;-74
2022/03/15 03:25:51;;;;;;;3.53;2.13;;;7.90;99.90;;;;;;5050360;28;20192;-72
2022/03/15 03:28:19;;;;;;;3.67;2.23;;;7.90;99.90;;;;;;5051102;28;20224;-71
2022/03/15 03:30:48;;;;;;;3.93;2.67;;;7.90;99.90;;;;;;5052817;28;20227;-69
2022/03/15 03:33:15;;;;;;;3.27;2.20;;;7.90;99.90;;;;;;5038855;28;20284;-72
2022/03/15 03:35:43;;;;;;;4.27;1.93;;;7.90;99.90;;;;;;5053494;28;20212;-73
2022/03/15 03:38:12;;;;;;;4.17;2.30;;;7.90;99.90;;;;;;5049352;28;20173;-67
2022/03/15 03:40:43;;;;;;;5.00;2.40;;;7.90;99.90;;;;;;5050779;28;20264;-72
2022/03/15 03:43:11;;;;;;;4.63;2.30;;;7.90;99.90;;;;;;5048172;28;20181;-72
2022/03/15 03:45:37;;;;;;;4.53;2.30;;;7.90;99.90;;;;;;5053195;28;20178;-73
2022/03/15 03:48:04;;;;;;;3.20;2.10;;;8.00;99.90;;;;;;5051288;28;20276;-71
2022/03/15 03:50:30;;;;;;;3.50;2.20;;;7.90;99.90;;;;;;5046740;28;20209;-73
2022/03/15 03:52:56;;;;;;;3.60;2.47;;;7.90;99.90;;;;;;5047730;28;20170;-73
2022/03/15 03:55:24;;;;;;;4.03;2.43;;;7.90;99.90;;;;;;5048955;28;20197;-73
2022/03/15 03:57:52;;;;;;;4.33;2.23;;;7.90;99.90;;;;;;5039426;28;20332;-73
2022/03/15 04:00:18;;;;;;;6.03;2.07;;;8.00;99.90;;;;;;5040451;28;20199;-73
2022/03/15 04:02:46;;;;;;;3.93;2.23;;;8.00;99.90;;;;;;5048821;28;20181;-72
2022/03/15 04:05:13;;;;;;;3.80;2.30;;;8.00;99.90;;;;;;5050712;28;20200;-70
2022/03/15 04:07:41;;;;;;;3.47;2.20;;;8.00;99.90;;;;;;5049127;28;20203;-73
2022/03/15 04:10:08;;;;;;;3.70;2.10;;;8.00;99.90;;;;;;5046902;28;20200;-73
2022/03/15 04:12:34;;;;;;;3.57;2.10;;;8.00;99.90;;;;;;5050922;28;20272;-73
2022/03/15 04:15:00;;;;;;;3.80;2.00;;;8.00;99.90;;;;;;5051013;28;20197;-72
2022/03/15 04:17:26;;;;;;;4.20;2.40;;;8.00;99.90;;;;;;5055153;28;20195;-71
2022/03/15 04:19:55;;;;;;;4.20;2.20;;;8.00;99.90;;;;;;5053352;28;20176;-73
2022/03/15 04:22:21;;;;;;;4.10;2.23;;;8.00;99.90;;;;;;5051740;28;20212;-73
2022/03/15 04:24:46;;;;;;;4.87;2.30;;;8.00;99.90;;;;;;5050068;28;20185;-73
2022/03/15 04:27:12;;;;;;;4.20;2.30;;;8.00;99.90;;;;;;5050229;28;20263;-72
2022/03/15 04:29:38;;;;;;;4.37;2.20;;;8.00;99.90;;;;;;5050369;28;20205;-73
2022/03/15 04:32:04;;;;;;;2.87;2.10;;;8.10;99.90;;;;;;5048756;28;20182;-71
2022/03/15 04:34:30;;;;;;;3.47;2.47;;;8.10;99.90;;;;;;5052160;28;20178;-73
2022/03/15 04:36:58;;;;;;;3.40;2.40;;;8.10;99.90;;;;;;5046172;28;20181;-73
2022/03/15 04:39:26;;;;;;;4.57;2.60;;;8.10;99.90;;;;;;5067814;28;20201;-69
2022/03/15 04:41:52;;;;;;;3.87;2.43;;;8.10;99.90;;;;;;5064867;28;20201;-71
2022/03/15 04:44:20;;;;;;;4.60;2.50;;;8.00;99.90;;;;;;5049043;28;20184;-74
2022/03/15 04:46:48;;;;;;;4.07;2.57;;;8.00;99.90;;;;;;5055971;28;20198;-70
2022/03/15 04:49:16;;;;;;;3.33;2.20;;;8.00;99.90;;;;;;5051207;28;20170;-69
2022/03/15 04:51:46;;;;;;;3.37;2.20;;;8.00;99.90;;;;;;5056083;28;20178;-73
2022/03/15 04:54:12;;;;;;;3.40;2.20;;;8.10;99.90;;;;;;5065230;28;20449;-73
2022/03/15 04:56:41;;;;;;;3.57;2.50;;;8.10;99.90;;;;;;5056966;28;20201;-72
2022/03/15 04:59:06;;;;;;;3.57;2.40;;;8.10;99.90;;;;;;5051504;28;20186;-74
2022/03/15 05:01:34;;;;;;;4.43;2.47;;;8.10;99.90;;;;;;5056376;28;20197;-74
2022/03/15 05:04:03;;;;;;;4.37;2.50;;;8.10;99.90;;;;;;5055666;28;20298;-73
2022/03/15 05:06:31;;;;;;;4.60;2.30;;;8.10;99.90;;;;;;5047612;28;20178;-74
2022/03/15 05:08:56;;;;;;;3.43;2.10;;;8.10;99.90;;;;;;5044176;28;20231;-73
2022/03/15 05:11:22;;;;;;;6.20;2.70;;;8.10;99.90;;;;;;5061901;28;20189;-74
2022/03/15 05:13:49;;;;;;;4.10;2.30;;;8.10;99.90;;;;;;5055242;28;20196;-74
2022/03/15 05:16:22;;;;;;;3.30;2.03;;;8.10;99.90;;;;;;5055059;28;20242;-73
2022/03/15 05:18:53;;;;;;;3.63;2.30;;;8.10;99.90;;;;;;5055766;28;20197;-72
2022/03/15 05:21:21;;;;;;;3.20;2.30;;;8.10;99.90;;;;;;5050128;28;20217;-74
2022/03/15 05:23:50;;;;;;;4.07;2.37;;;8.10;99.90;;;;;;5051421;28;20228;-72
2022/03/15 05:26:17;;;;;;;3.57;2.20;;;8.20;99.90;;;;;;5048080;28;20233;-73
2022/03/15 05:28:45;;;;;;;3.23;2.00;;;8.20;99.90;;;;;;5044964;28;20214;-74
2022/03/15 05:31:12;;;;;;;4.27;2.33;;;8.20;99.90;;;;;;5061687;28;20201;-74
2022/03/15 05:33:37;;;;;;;5.43;2.43;;;8.20;99.90;;;;;;5051175;28;20280;-74
2022/03/15 05:36:04;;;;;;;4.73;2.53;;;8.20;99.90;;;;;;5049446;28;20252;-74
2022/03/15 05:38:32;;;;;;;3.90;2.23;;;8.20;99.90;;;;;;5041205;28;20188;-74
2022/03/15 05:41:01;;;;;;;3.63;1.90;;;8.20;99.90;;;;;;5051061;28;20191;-72
2022/03/15 05:43:28;;;;;;;4.13;2.50;;;8.20;99.90;;;;;;5053262;28;20181;-75
2022/03/15 05:45:54;;;;;;;4.03;2.30;;;8.20;99.90;;;;;;5066163;28;20203;-73
2022/03/15 05:48:25;;;;;;;6.90;2.70;;;8.20;99.90;;;;;;5046568;28;20512;-75
2022/03/15 05:50:52;;;;;;;3.53;2.20;;;8.20;99.90;;;;;;5047067;28;20263;-74
2022/03/15 05:53:20;;;;;;;4.50;2.57;;;8.20;99.90;;;;;;5054201;28;20216;-73
2022/03/15 05:55:46;;;;;;;4.93;2.83;;;8.20;99.90;;;;;;5051184;28;20196;-74
2022/03/15 05:58:14;;;;;;;3.90;2.40;;;8.20;99.90;;;;;;5045702;28;20228;-73
2022/03/15 06:00:42;;;;;;;6.23;2.63;;;8.10;99.90;;;;;;5055364;28;20188;-75
2022/03/15 06:03:11;;;;;;;4.03;2.40;;;8.10;99.90;;;;;;5067116;28;20174;-75
2022/03/15 06:05:39;;;;;;;3.77;2.03;;;8.20;99.90;;;;;;5054047;28;20197;-76
2022/03/15 06:08:06;;;;;;;2.73;1.90;;;8.20;99.90;;;;;;5054878;28;20200;-75
2022/03/15 06:10:31;;;;;;;4.70;2.40;;;8.20;99.90;;;;;;5051682;28;20220;-76
2022/03/15 06:12:58;;;;;;;3.77;1.90;;;8.20;99.90;;;;;;5044365;28;20197;-75
2022/03/15 06:15:23;;;;;;;4.07;2.37;;;8.20;99.90;;;;;;5061035;28;20197;-75
2022/03/15 06:17:56;;;;;;;3.30;2.20;;;8.30;99.90;;;;;;5054186;28;20185;-75
2022/03/15 06:20:23;;;;;;;3.43;2.17;;;8.30;99.90;;;;;;5054839;28;20193;-75
2022/03/15 06:22:51;;;;;;;5.10;2.10;;;8.30;99.90;;;;;;5054742;28;20177;-76
2022/03/15 06:25:22;;;;;;;3.83;1.90;;;8.40;99.90;;;;;;5050082;28;20211;-74
2022/03/15 06:27:50;;;;;;;3.87;2.00;;;8.40;99.90;;;;;;5047991;28;20217;-75
2022/03/15 06:30:17;;;;;;;3.10;1.93;;;8.40;99.90;;;;;;5054788;28;20224;-73
2022/03/15 06:32:43;;;;;;;4.00;2.00;;;8.50;99.90;;;;;;5054564;28;20201;-75
2022/03/15 06:35:13;;;;;;;4.07;2.10;;;8.50;99.90;;;;;;5036920;28;20184;-75
2022/03/15 06:37:43;;;;;;;4.53;2.00;;;8.50;99.90;;;;;;5050373;28;20193;-76
2022/03/15 06:40:09;;;;;;;3.07;2.10;;;8.50;99.90;;;;;;5044106;28;20192;-76
2022/03/15 06:42:40;;;;;;;2.13;1.73;;;8.50;99.90;;;;;;5049138;28;20185;-76
2022/03/15 06:45:07;;;;;;;2.87;2.13;;;8.60;99.90;;;;;;5052821;28;20211;-77
2022/03/15 06:47:39;;;;;;;3.20;2.17;;;8.60;99.90;;;;;;5047761;28;20178;-75
2022/03/15 06:50:12;;;;;;;4.03;1.93;;;8.60;99.90;;;;;;5044067;28;20264;-76
2022/03/15 06:52:41;;;;;;;3.37;2.37;;;8.60;99.90;;;;;;5053860;28;20197;-76
2022/03/15 06:55:08;;;;;;;2.37;2.00;;;8.70;99.90;;;;;;5053937;28;20197;-76
2022/03/15 06:57:34;;;;;;;2.70;2.00;;;8.70;99.90;;;;;;5053196;28;20177;-72
2022/03/15 07:00:04;;;;;;;3.53;2.40;;;8.70;99.90;;;;;;5054258;28;20197;-75
2022/03/15 07:02:29;;;;;;;3.07;1.90;;;8.80;99.90;;;;;;5043185;28;20181;-72
2022/03/15 07:04:55;;;;;;;4.67;2.57;;;8.80;99.90;;;;;;5048138;28;20178;-75
2022/03/15 07:07:25;;;;;;;3.13;1.83;;;8.90;99.90;;;;;;5063516;28;20204;-75
2022/03/15 07:09:54;;;;;;;4.30;2.37;;;8.90;99.90;;;;;;5050350;28;20196;-75
2022/03/15 07:12:20;;;;;;;2.97;1.97;;;9.00;99.90;;;;;;5064211;28;20240;-74
2022/03/15 07:14:49;;;;;;;3.60;1.90;;;9.00;99.90;;;;;;5033715;28;20204;-75
2022/03/15 07:17:15;;;;;;;4.87;2.00;;;9.10;99.90;;;;;;5050463;28;20197;-73
2022/03/15 07:19:41;;;;;;;3.57;2.13;;;9.10;99.90;;;;;;5053845;28;20173;-74
2022/03/15 07:22:07;;;;;;;3.67;1.80;;;9.20;99.90;;;;;;5053925;28;20177;-73
2022/03/15 07:24:36;;;;;;;4.80;1.80;;;9.20;99.90;;;;;;5059975;28;20209;-73
2022/03/15 07:27:04;;;;;;;3.70;2.00;;;9.30;99.90;;;;;;5033695;28;20178;-72
2022/03/15 07:29:33;;;;;;;3.90;1.93;;;9.30;99.90;;;;;;5033601;28;20170;-75
2022/03/15 07:31:58;;;;;;;3.03;2.00;;;9.40;99.90;;;;;;5040942;28;20258;-75
2022/03/15 07:34:24;;;;;;;3.47;1.93;;;9.40;99.90;;;;;;5035463;28;20233;-75
2022/03/15 07:36:50;;;;;;;4.40;2.10;;;9.50;99.90;;;;;;5033824;28;20182;-76
2022/03/15 07:39:16;;;;;;;4.20;2.00;;;9.50;99.90;;;;;;5055960;28;20184;-76
2022/03/15 07:41:43;;;;;;;2.63;1.80;;;9.60;99.90;;;;;;5056637;28;20181;-75
2022/03/15 07:44:13;;;;;;;3.20;1.83;;;9.60;99.90;;;;;;5037448;28;20316;-74
2022/03/15 07:46:40;;;;;;;3.80;2.00;;;9.70;99.90;;;;;;5037736;28;20182;-73
2022/03/15 07:49:06;;;;;;;4.30;2.10;;;9.70;99.90;;;;;;5037808;28;20185;-75
2022/03/15 07:51:35;;;;;;;3.30;2.30;;;9.80;99.90;;;;;;5044503;28;20201;-75
2022/03/15 07:54:00;;;;;;;4.17;2.13;;;9.90;99.90;;;;;;5050184;28;20536;-75
2022/03/15 07:56:26;;;;;;;3.17;2.10;;;9.90;99.90;;;;;;5057284;28;20208;-76
2022/03/15 07:58:51;;;;;;;4.27;1.97;;;10.00;99.90;;;;;;5057263;28;20197;-74
2022/03/15 08:01:17;;;;;;;3.90;1.80;;;10.10;99.90;;;;;;5057675;28;20173;-76
2022/03/15 08:03:43;;;;;;;5.57;2.27;;;10.10;99.90;;;;;;5057544;28;20215;-75
2022/03/15 08:06:08;;;;;;;7.17;2.20;;;10.10;99.90;;;;;;5038758;28;20206;-74
2022/03/15 08:08:36;;;;;;;4.23;2.10;;;10.20;99.90;;;;;;5037273;28;20186;-76
2022/03/15 08:11:06;;;;;;;2.50;1.63;;;10.20;99.90;;;;;;5037257;28;20296;-76
2022/03/15 08:13:34;;;;;;;3.17;1.77;;;10.30;99.90;;;;;;5045070;28;20188;-74
2022/03/15 08:16:01;;;;;;;2.83;2.00;;;10.30;99.90;;;;;;5056958;28;20201;-74
2022/03/15 08:18:27;;;;;;;2.93;2.07;;;10.30;99.90;;;;;;5057048;28;20196;-73
2022/03/15 08:20:53;;;;;;;2.97;2.00;;;10.30;99.90;;;;;;5046203;28;20202;-75
2022/03/15 08:23:20;;;;;;;4.50;2.03;;;10.40;99.90;;;;;;5037375;28;20182;-76
2022/03/15 08:25:46;;;;;;;5.40;2.17;;;10.40;99.90;;;;;;5037047;28;20178;-76
2022/03/15 08:28:11;;;;;;;3.13;2.00;;;10.40;99.90;;;;;;5043770;28;20295;-76
2022/03/15 08:30:37;;;;;;;3.03;2.10;;;10.40;99.90;;;;;;5093613;28;20222;-75
2022/03/15 08:33:04;;;;;;;3.83;2.30;;;10.40;99.90;;;;;;5093295;28;20251;-74
2022/03/15 08:35:31;;;;;;;4.10;1.97;;;10.40;99.90;;;;;;5071179;28;20181;-74
2022/03/15 08:38:00;;;;;;;5.43;2.40;;;10.50;99.90;;;;;;5084676;28;20176;-75
2022/03/15 08:40:26;;;;;;;3.33;2.10;;;10.50;99.90;;;;;;5056945;28;20197;-75
2022/03/15 08:42:53;;;;;;;4.97;2.57;;;10.50;99.90;;;;;;5056545;28;20189;-70
2022/03/15 08:45:19;;;;;;;4.70;2.50;;;10.60;99.90;;;;;;5056934;28;20299;-77
2022/03/15 08:47:47;;;;;;;4.87;2.43;;;10.60;99.90;;;;;;5044877;28;20219;-74
2022/03/15 08:50:16;;;;;;;4.53;2.30;;;10.60;99.90;;;;;;5055764;28;20243;-75
2022/03/15 08:52:44;;;;;;;3.47;2.00;;;10.70;99.90;;;;;;5057020;28;20177;-76
2022/03/15 08:55:14;;;;;;;4.57;2.58;;;10.70;99.90;;;;;;5055428;28;20226;-75
2022/03/15 08:57:40;;;;;;;3.50;2.00;;;10.80;99.90;;;;;;5082986;28;20246;-76
2022/03/15 09:00:09;;;;;;;3.83;2.30;;;10.80;99.90;;;;;;5056376;28;20177;-74
2022/03/15 09:02:37;;;;;;;4.90;2.37;;;10.80;99.90;;;;;;5088388;28;20176;-74
2022/03/15 09:05:03;;;;;;;5.90;2.10;;;10.90;99.90;;;;;;5053303;28;20284;-76
2022/03/15 09:07:30;;;;;;;4.57;2.00;;;10.80;99.90;;;;;;5071705;28;20227;-76
2022/03/15 09:10:00;;;;;;;3.55;1.80;;;10.90;99.90;;;;;;5087412;28;20228;-75
2022/03/15 09:12:26;;;;;;;5.97;2.60;;;10.90;99.90;;;;;;5053631;28;20170;-76
2022/03/15 09:14:52;;;;;;;3.90;2.05;;;10.90;99.90;;;;;;5056179;28;20230;-77
2022/03/15 09:17:19;;;;;;;3.67;2.50;;;10.90;99.90;;;;;;5056380;28;20219;-75
2022/03/15 09:19:45;;;;;;;5.47;2.70;;;11.00;99.90;;;;;;5042048;28;20169;-75
2022/03/15 09:22:14;;;;;;;5.53;2.40;;;11.00;99.90;;;;;;5054553;28;20170;-76
2022/03/15 09:24:40;;;;;;;3.85;2.25;;;11.00;99.90;;;;;;5087825;28;20165;-74
2022/03/15 09:27:10;;;;;;;3.92;2.22;;;11.10;99.90;;;;;;5046444;28;20224;-76
2022/03/15 09:29:37;;;;;;;4.57;2.15;;;11.10;99.90;;;;;;5035637;28;20256;-75
2022/03/15 09:32:04;;;;;;;4.47;2.10;;;11.10;99.90;;;;;;5036031;28;20166;-76
2022/03/15 09:34:34;;;;;;;4.23;1.87;;;11.20;99.90;;;;;;5042354;28;20197;-75
2022/03/15 09:37:00;;;;;;;3.53;2.35;;;11.20;99.90;;;;;;5055995;28;20173;-76
2022/03/15 09:39:28;;;;;;;4.95;2.20;;;11.30;99.90;;;;;;5050635;28;20177;-77
2022/03/15 09:41:56;;;;;;;3.55;1.90;;;11.30;99.90;;;;;;5050910;28;20213;-76
2022/03/15 09:44:28;;;;;;;5.22;2.10;;;11.30;99.90;;;;;;5074557;28;20196;-76
2022/03/15 09:47:03;;;;;;;5.32;2.10;;;11.40;99.90;;;;;;5036417;28;20162;-76
2022/03/15 09:49:29;;;;;;;4.90;1.70;;;11.40;99.90;;;;;;5035616;28;20158;-77
2022/03/15 09:51:59;;;;;;;4.25;2.15;;;11.40;99.90;;;;;;5047126;28;20177;-76
2022/03/15 09:54:29;;;;;;;3.33;1.63;;;11.40;99.90;;;;;;5055299;28;20164;-77
2022/03/15 09:56:56;;;;;;;4.50;1.90;;;11.40;99.90;;;;;;5055298;28;20169;-76
2022/03/15 09:59:23;;;;;;;3.15;1.95;;;11.40;99.90;;;;;;5055078;28;20268;-76
2022/03/15 10:01:52;;;;;;;3.45;1.95;;;11.50;99.90;;;;;;5053966;28;20283;-76
2022/03/15 10:04:19;;;;;;;3.75;1.90;;;11.50;99.90;;;;;;5045391;28;20174;-75
2022/03/15 10:06:45;;;;;;;2.95;2.00;;;11.50;99.90;;;;;;5091992;28;20256;-73
2022/03/15 10:09:11;;;;;;;5.35;2.40;;;11.50;99.90;;;;;;5078438;28;20555;-76
2022/03/15 10:11:38;;;;;;;4.28;2.28;;;11.50;99.90;;;;;;5054919;28;20303;-75
2022/03/15 10:14:09;;;;;;;3.90;2.40;;;11.50;99.90;;;;;;5054856;28;20181;-76
2022/03/15 10:16:40;;;;;;;3.08;2.10;;;11.50;99.90;;;;;;5054946;28;20172;-74
2022/03/15 10:19:08;;;;;;;4.57;2.38;;;11.50;99.90;;;;;;5072044;28;20157;-76
2022/03/15 10:21:46;;;;;;;5.57;2.60;;;11.40;99.90;;;;;;5055054;28;20176;-75
2022/03/15 10:24:29;;;;;;;4.60;2.67;;;11.40;99.90;;;;;;5055032;28;20184;-76
2022/03/15 10:26:59;;;;;;;9.67;2.30;;;11.40;99.90;;;;;;5054563;28;20165;-75
2022/03/15 10:29:28;;;;;;;4.03;2.60;;;11.30;99.90;;;;;;5039571;28;20182;-75
2022/03/15 10:31:54;;;;;;;3.88;2.45;;;11.30;99.90;;;;;;5052699;28;20216;-75
2022/03/15 10:34:21;;;;;;;3.33;2.40;;;11.30;99.90;;;;;;5054416;28;20181;-74
2022/03/15 10:36:56;;;;;;;4.10;2.47;;;11.30;99.90;;;;;;5050655;28;20412;-72
2022/03/15 10:39:23;;;;;;;4.43;2.20;;;11.20;99.90;;;;;;5061408;28;20188;-75
2022/03/15 10:42:05;;;;;;;5.23;2.80;;;11.20;99.90;;;;;;5034627;28;20256;-72
2022/03/15 10:44:39;;;;;;;4.50;2.67;;;11.20;99.90;;;;;;5070968;28;20256;-73
2022/03/15 10:47:17;;;;;;;6.90;2.40;;;11.20;99.90;;;;;;5044302;28;20191;-74
2022/03/15 10:49:59;;;;;;;5.55;2.75;;;11.20;99.90;;;;;;5054350;28;20307;-74
2022/03/15 10:52:36;;;;;;;4.87;2.43;;;11.10;99.90;;;;;;5054554;28;20157;-75
2022/03/15 10:55:32;;;;;;;4.33;2.47;;;11.10;99.90;;;;;;5034539;28;20216;-73
2022/03/15 10:58:09;;;;;;;3.50;2.47;;;11.10;99.90;;;;;;5033360;28;20251;-73
2022/03/15 11:00:42;;;;;;;4.00;2.47;;;11.10;99.90;;;;;;5052734;28;20242;-75
2022/03/15 11:03:23;;;;;;;4.30;2.43;;;11.10;99.90;;;;;;5054108;28;20301;-75
2022/03/15 11:05:50;;;;;;;4.37;2.50;;;11.10;99.90;;;;;;5042182;28;20169;-75
2022/03/15 11:08:18;;;;;;;3.50;2.13;;;11.10;99.90;;;;;;5050572;28;20177;-75
2022/03/15 11:10:50;;;;;;;4.77;2.57;;;11.00;99.90;;;;;;5051494;28;20263;-75
2022/03/15 11:13:17;;;;;;;6.83;2.70;;;11.00;99.90;;;;;;5034173;28;20235;-75
2022/03/15 11:15:47;;;;;;;4.30;2.53;;;11.00;99.90;;;;;;5048318;28;20305;-74
2022/03/15 11:18:15;;;;;;;5.07;2.80;;;11.00;99.90;;;;;;5053806;28;20177;-74
2022/03/15 11:20:43;;;;;;;6.07;2.90;;;11.00;99.90;;;;;;5057200;28;20176;-74
2022/03/15 11:23:16;;;;;;;3.72;2.55;;;11.00;99.90;;;;;;5052918;28;20177;-74
2022/03/15 11:25:48;;;;;;;5.43;2.57;;;11.00;99.90;;;;;;5039972;28;20197;-70
2022/03/15 11:28:27;;;;;;;3.70;2.53;;;11.00;99.90;;;;;;5046569;28;20204;-75
2022/03/15 11:30:59;;;;;;;5.97;2.70;;;11.00;99.90;;;;;;5045589;28;20193;-73
2022/03/15 11:33:29;;;;;;;4.47;2.70;;;11.00;99.90;;;;;;5044484;28;20169;-74
2022/03/15 11:35:57;;;;;;;5.43;2.53;;;11.00;99.90;;;;;;5044778;28;20174;-75
2022/03/15 11:38:36;;;;;;;4.07;2.60;;;10.90;99.90;;;;;;5059443;28;20181;-76
2022/03/15 11:41:02;;;;;;;4.57;2.57;;;10.90;99.90;;;;;;5052879;28;20185;-74
2022/03/15 11:43:56;;;;;;;3.33;2.63;;;10.90;99.90;;;;;;5047914;28;20212;-75
2022/03/15 11:46:33;;;;;;;4.13;2.20;;;10.90;99.90;;;;;;5053763;28;20184;-75
2022/03/15 11:49:12;;;;;;;4.20;2.63;;;10.90;99.90;;;;;;5060098;28;20165;-71
2022/03/15 11:51:50;;;;;;;5.10;2.60;;;10.90;99.90;;;;;;5054047;28;20193;-77
2022/03/15 11:54:43;;;;;;;5.23;3.10;;;11.00;99.90;;;;;;5047681;28;20184;-74
2022/03/15 11:57:27;;;;;;;4.20;3.07;;;11.00;99.90;;;;;;5053738;28;20158;-75
2022/03/15 11:59:56;;;;;;;3.77;2.67;;;11.10;99.90;;;;;;5053695;28;20231;-72
2022/03/15 12:02:29;;;;;;;4.97;3.13;;;11.10;99.90;;;;;;5046181;28;20284;-74
2022/03/15 12:04:58;;;;;;;4.68;3.25;;;11.10;99.90;;;;;;5042042;28;20177;-74
2022/03/15 12:07:46;;;;;;;4.60;2.87;;;11.10;99.90;;;;;;5053384;28;20185;-74
2022/03/15 12:10:36;;;;;;;3.43;2.90;;;11.10;99.90;;;;;;5034032;28;20223;-74
2022/03/15 12:13:03;;;;;;;5.03;3.03;;;11.10;99.90;;;;;;5072528;28;20211;-74
2022/03/15 12:15:42;;;;;;;4.33;3.17;;;11.20;99.90;;;;;;5073339;28;20169;-75
2022/03/15 12:20:59;;;;;;;5.50;3.03;;;11.10;99.90;;;;;;5067904;28;20185;-75
2022/03/15 12:23:37;;;;;;;4.23;3.17;;;11.20;99.90;;;;;;5055676;28;20170;-75
2022/03/15 12:26:04;;;;;;;5.10;3.40;;;11.10;99.90;;;;;;5053326;28;20181;-73
2022/03/15 12:28:32;;;;;;;3.93;3.37;;;11.10;99.90;;;;;;5044662;28;20268;-75
2022/03/15 12:31:09;;;;;;;4.57;3.20;;;11.10;99.90;;;;;;5036927;28;20204;-74
2022/03/15 12:33:39;;;;;;;4.23;2.97;;;11.10;99.90;;;;;;5049351;28;20181;-74
2022/03/15 12:36:11;;;;;;;3.57;3.10;;;11.10;99.90;;;;;;5056693;28;20173;-75
2022/03/15 12:38:40;;;;;;;5.17;3.37;;;11.10;99.90;;;;;;5053008;28;20180;-75
2022/03/15 12:41:10;;;;;;;5.97;3.63;;;11.10;99.90;;;;;;5051335;28;20205;-74
2022/03/15 12:43:36;;;;;;;5.57;3.20;;;11.10;99.90;;;;;;5041893;28;20170;-74
2022/03/15 12:46:05;;;;;;;5.57;3.13;;;11.10;99.90;;;;;;5039754;28;20228;-73
2022/03/15 12:48:34;;;;;;;5.10;3.00;;;11.10;99.90;;;;;;5052871;28;20198;-74
2022/03/15 12:51:01;;;;;;;4.87;3.00;;;11.00;99.90;;;;;;5056718;28;20200;-76
2022/03/15 12:53:47;;;;;;;5.43;3.53;;;11.00;99.90;;;;;;5076053;28;20173;-75
2022/03/15 12:56:18;;;;;;;6.07;3.50;;;11.00;99.90;;;;;;5055905;28;20187;-71
2022/03/15 12:58:43;;;;;;;5.17;3.40;;;11.00;99.90;;;;;;5047886;28;20293;-74
2022/03/15 13:01:13;;;;;;;5.57;3.30;;;11.00;99.90;;;;;;5053069;28;20205;-74
2022/03/15 13:03:43;;;;;;;4.27;2.83;;;11.00;99.90;;;;;;5055871;28;20300;-74